Etusivu
METAR-TAF:

METAR-TAF

Lentoasemat :

Kemi-Tornion lentoasema

Kemi, Suomi

Leveyspiiri: 65-47N, Pituuspiiri: 024-35E, korkeus merenpinnasta: 15 m

Tämänhetkinen sää

Tämä raportti tehtiin 27 minuuttia sitten, kello 18.50 UTC
Tuuli 6 kn pohjoisesta/koillisesta, vaihdellen pohjoisen ja idän/koillisen välillä
Lämpötila 22°C
Kosteus 88%
Ilmanpaine 1005 hPa
Hajonneita pilviä 3300 ft:n korkeudessa

METAR: EFKE 211850Z AUTO 02006KT 360V070 //// BKN033 22/20 Q1005

Aika: 22:17 (19:17 UTC)

Sääennuste

Tämä raportti tehtiin 1 tunti ja 40 minuuttia sitten, kello 17.37 UTC
Ennuste voimassa 21. päivästä klo 18 UTC - 21. päivään klo 21 UTC
Tuuli 6 kn idästä
Näkyvyys 10 km tai enemmän
Hajonneita pilviä 3000 ft:n korkeudessa
Ajoittain
21. päivästä klo 18 UTC - 21. päivään klo 21 UTC
Näkyvyys: 6000 m
Hajanaisia pilviä 2000 ft:n korkeudessa, Cumulonimbus.
ukkosmyrsky, sadetta

TAF: EFKE 211737Z 2118/2121 10006KT 9999 BKN030 TEMPO 2118/2121 6000 TSRA SCT020CB

Säähavainnot ja -ennusteet yli 4000 lentoasemalta (METAR- ja TAF-raportit).

Käytössä olevat sääasemat on merkitty karttaan keltaisilla ja punaisilla pisteillä.

Aseta hiiri pisteen päälle nähdäksesi sääaseman nimen.

Klikkaa sitten nähdäksesi säähavainnot ja -ennusteet.

Kartan vaihtaminen: klikkaa mustalla rastilla varustettuja vihreitä pisteitä, niin voit zoomata sisään; viivalla varustettua vihreää pistettä, niin voit zoomata ulos tai vihreitä nuolia, niin pääset viereisille kartoille.


METAR-TAF: